sensor_id;sensor_type;location;lat;lon;timestamp;pressure;altitude;pressure_sealevel;temperature;humidity
38912;BME280;28444;48.056;14.408;2022-12-18T00:01:32;98930.84;;;-6.81;87.36
38912;BME280;28444;48.056;14.408;2022-12-18T00:04:01;98924.47;;;-6.67;88.48
38912;BME280;28444;48.056;14.408;2022-12-18T00:06:29;98918.34;;;-6.47;88.95
38912;BME280;28444;48.056;14.408;2022-12-18T00:08:57;98926.03;;;-6.49;89.27
38912;BME280;28444;48.056;14.408;2022-12-18T00:11:27;98920.03;;;-6.53;88.93
38912;BME280;28444;48.056;14.408;2022-12-18T00:13:55;98921.00;;;-6.64;87.94
38912;BME280;28444;48.056;14.408;2022-12-18T00:16:25;98923.53;;;-6.76;86.91
38912;BME280;28444;48.056;14.408;2022-12-18T00:18:53;98924.56;;;-6.90;87.29
38912;BME280;28444;48.056;14.408;2022-12-18T00:21:21;98932.97;;;-7.12;87.46
38912;BME280;28444;48.056;14.408;2022-12-18T00:23:49;98933.59;;;-7.24;87.74
38912;BME280;28444;48.056;14.408;2022-12-18T00:26:21;98936.59;;;-7.22;88.61
38912;BME280;28444;48.056;14.408;2022-12-18T00:28:49;98945.75;;;-7.03;88.82
38912;BME280;28444;48.056;14.408;2022-12-18T00:31:19;98938.88;;;-7.00;89.19
38912;BME280;28444;48.056;14.408;2022-12-18T00:33:47;98944.19;;;-7.00;88.29
38912;BME280;28444;48.056;14.408;2022-12-18T00:36:22;98939.25;;;-7.02;88.69
38912;BME280;28444;48.056;14.408;2022-12-18T00:38:49;98936.28;;;-7.04;88.48
38912;BME280;28444;48.056;14.408;2022-12-18T00:41:17;98940.22;;;-6.92;88.40
38912;BME280;28444;48.056;14.408;2022-12-18T00:44:04;98946.13;;;-6.85;89.19
38912;BME280;28444;48.056;14.408;2022-12-18T00:46:32;98954.53;;;-6.86;88.82
38912;BME280;28444;48.056;14.408;2022-12-18T00:48:59;98944.72;;;-6.89;88.59
38912;BME280;28444;48.056;14.408;2022-12-18T00:51:26;98952.91;;;-7.00;88.68
38912;BME280;28444;48.056;14.408;2022-12-18T00:53:53;98951.38;;;-7.01;89.79
38912;BME280;28444;48.056;14.408;2022-12-18T00:56:19;98956.19;;;-6.92;89.47
38912;BME280;28444;48.056;14.408;2022-12-18T00:58:46;98954.81;;;-7.00;89.04
38912;BME280;28444;48.056;14.408;2022-12-18T01:01:13;98959.22;;;-6.94;89.55
38912;BME280;28444;48.056;14.408;2022-12-18T01:03:40;98959.38;;;-7.01;89.38
38912;BME280;28444;48.056;14.408;2022-12-18T01:06:09;98964.75;;;-6.85;89.69
38912;BME280;28444;48.056;14.408;2022-12-18T01:08:36;98972.94;;;-6.75;88.94
38912;BME280;28444;48.056;14.408;2022-12-18T01:11:17;98974.44;;;-6.74;88.51
38912;BME280;28444;48.056;14.408;2022-12-18T01:13:44;98976.00;;;-6.77;88.36
38912;BME280;28444;48.056;14.408;2022-12-18T01:16:12;98980.44;;;-6.70;88.58
38912;BME280;28444;48.056;14.408;2022-12-18T01:18:39;98975.84;;;-6.50;87.79
38912;BME280;28444;48.056;14.408;2022-12-18T01:21:15;98967.78;;;-6.46;87.48
38912;BME280;28444;48.056;14.408;2022-12-18T01:23:42;98970.59;;;-6.53;86.92
38912;BME280;28444;48.056;14.408;2022-12-18T01:26:12;98974.25;;;-6.47;87.66
38912;BME280;28444;48.056;14.408;2022-12-18T01:28:39;98979.34;;;-6.53;87.75
38912;BME280;28444;48.056;14.408;2022-12-18T01:31:33;98976.81;;;-6.60;88.21
38912;BME280;28444;48.056;14.408;2022-12-18T01:34:00;98991.56;;;-6.56;88.16
38912;BME280;28444;48.056;14.408;2022-12-18T01:36:30;98995.09;;;-6.62;87.31
38912;BME280;28444;48.056;14.408;2022-12-18T01:39:00;99004.50;;;-6.58;87.55
38912;BME280;28444;48.056;14.408;2022-12-18T01:41:29;99001.03;;;-6.55;87.77
38912;BME280;28444;48.056;14.408;2022-12-18T01:47:50;99000.72;;;-6.96;86.38
38912;BME280;28444;48.056;14.408;2022-12-18T01:50:41;98993.34;;;-6.89;86.45
38912;BME280;28444;48.056;14.408;2022-12-18T01:53:17;99003.66;;;-6.91;87.09
38912;BME280;28444;48.056;14.408;2022-12-18T01:55:49;99009.72;;;-6.90;86.80
38912;BME280;28444;48.056;14.408;2022-12-18T01:58:18;99006.72;;;-6.92;87.25
38912;BME280;28444;48.056;14.408;2022-12-18T02:00:45;99006.03;;;-6.96;86.59
38912;BME280;28444;48.056;14.408;2022-12-18T02:03:12;98998.75;;;-6.92;86.88
38912;BME280;28444;48.056;14.408;2022-12-18T02:06:07;98996.47;;;-6.94;87.27
38912;BME280;28444;48.056;14.408;2022-12-18T02:08:46;98990.56;;;-6.82;86.92
38912;BME280;28444;48.056;14.408;2022-12-18T02:14:58;98982.34;;;-6.91;86.85
38912;BME280;28444;48.056;14.408;2022-12-18T02:20:23;98993.41;;;-7.12;87.76
38912;BME280;28444;48.056;14.408;2022-12-18T02:23:45;98992.88;;;-7.04;87.66
38912;BME280;28444;48.056;14.408;2022-12-18T02:26:30;98994.69;;;-7.20;87.07
38912;BME280;28444;48.056;14.408;2022-12-18T02:29:08;98996.19;;;-7.19;86.63
38912;BME280;28444;48.056;14.408;2022-12-18T02:31:40;99008.47;;;-7.25;86.36
38912;BME280;28444;48.056;14.408;2022-12-18T02:34:10;99005.63;;;-7.38;87.13
38912;BME280;28444;48.056;14.408;2022-12-18T02:36:40;98996.81;;;-7.55;86.63
38912;BME280;28444;48.056;14.408;2022-12-18T02:39:10;98999.41;;;-7.75;86.18
38912;BME280;28444;48.056;14.408;2022-12-18T02:41:38;99003.13;;;-7.69;85.65
38912;BME280;28444;48.056;14.408;2022-12-18T02:44:12;99005.03;;;-7.69;88.14
38912;BME280;28444;48.056;14.408;2022-12-18T02:46:46;99006.59;;;-7.99;91.16
38912;BME280;28444;48.056;14.408;2022-12-18T02:49:36;99011.25;;;-8.07;94.59
38912;BME280;28444;48.056;14.408;2022-12-18T02:52:39;99011.31;;;-8.10;95.65
38912;BME280;28444;48.056;14.408;2022-12-18T02:55:28;99018.22;;;-7.89;95.56
38912;BME280;28444;48.056;14.408;2022-12-18T02:58:41;99020.59;;;-7.71;94.54
38912;BME280;28444;48.056;14.408;2022-12-18T03:01:19;99007.69;;;-7.69;94.30
38912;BME280;28444;48.056;14.408;2022-12-18T03:03:54;99012.47;;;-7.84;93.66
38912;BME280;28444;48.056;14.408;2022-12-18T03:06:49;99016.41;;;-7.69;92.83
38912;BME280;28444;48.056;14.408;2022-12-18T03:09:21;99015.66;;;-7.69;92.56
38912;BME280;28444;48.056;14.408;2022-12-18T03:11:55;99018.84;;;-7.55;92.65
38912;BME280;28444;48.056;14.408;2022-12-18T03:14:43;99020.31;;;-7.54;92.12
38912;BME280;28444;48.056;14.408;2022-12-18T03:17:15;99027.31;;;-7.63;92.39
38912;BME280;28444;48.056;14.408;2022-12-18T03:19:46;99020.69;;;-7.52;92.07
38912;BME280;28444;48.056;14.408;2022-12-18T03:22:16;99023.44;;;-7.35;92.27
38912;BME280;28444;48.056;14.408;2022-12-18T03:24:44;99026.34;;;-7.26;91.82
38912;BME280;28444;48.056;14.408;2022-12-18T03:27:14;99026.97;;;-7.18;91.86
38912;BME280;28444;48.056;14.408;2022-12-18T03:29:46;99021.59;;;-7.15;91.15
38912;BME280;28444;48.056;14.408;2022-12-18T03:32:25;99022.72;;;-7.16;90.90
38912;BME280;28444;48.056;14.408;2022-12-18T03:34:55;98999.25;;;-7.21;90.24
38912;BME280;28444;48.056;14.408;2022-12-18T03:37:24;99000.50;;;-7.25;90.61
38912;BME280;28444;48.056;14.408;2022-12-18T03:39:50;99001.56;;;-7.23;90.95
38912;BME280;28444;48.056;14.408;2022-12-18T03:42:29;98996.59;;;-7.01;91.38
38912;BME280;28444;48.056;14.408;2022-12-18T03:45:12;98996.22;;;-6.99;91.14
38912;BME280;28444;48.056;14.408;2022-12-18T03:48:16;98991.22;;;-6.97;90.30
38912;BME280;28444;48.056;14.408;2022-12-18T03:53:57;99012.75;;;-7.12;87.67
38912;BME280;28444;48.056;14.408;2022-12-18T03:56:32;99012.00;;;-7.12;88.17
38912;BME280;28444;48.056;14.408;2022-12-18T03:59:02;99014.41;;;-7.18;89.30
38912;BME280;28444;48.056;14.408;2022-12-18T04:01:35;99015.03;;;-7.10;90.68
38912;BME280;28444;48.056;14.408;2022-12-18T04:04:05;99019.81;;;-7.02;91.19
38912;BME280;28444;48.056;14.408;2022-12-18T04:06:33;99017.50;;;-6.99;90.00
38912;BME280;28444;48.056;14.408;2022-12-18T04:09:00;99021.53;;;-6.91;91.45
38912;BME280;28444;48.056;14.408;2022-12-18T04:11:27;99022.81;;;-6.80;91.83
38912;BME280;28444;48.056;14.408;2022-12-18T04:13:57;99024.59;;;-6.73;90.96
38912;BME280;28444;48.056;14.408;2022-12-18T04:16:27;99022.88;;;-6.63;90.90
38912;BME280;28444;48.056;14.408;2022-12-18T04:18:54;99036.28;;;-6.67;90.96
38912;BME280;28444;48.056;14.408;2022-12-18T04:21:20;99031.00;;;-6.70;89.49
38912;BME280;28444;48.056;14.408;2022-12-18T04:23:47;99026.44;;;-6.70;89.73
38912;BME280;28444;48.056;14.408;2022-12-18T04:26:14;99025.41;;;-6.76;89.89
38912;BME280;28444;48.056;14.408;2022-12-18T04:28:41;99028.81;;;-6.75;90.49
38912;BME280;28444;48.056;14.408;2022-12-18T04:31:07;99031.69;;;-6.66;89.88
38912;BME280;28444;48.056;14.408;2022-12-18T04:33:34;99031.41;;;-6.72;89.83
38912;BME280;28444;48.056;14.408;2022-12-18T04:36:01;99031.22;;;-6.81;89.24
38912;BME280;28444;48.056;14.408;2022-12-18T04:38:28;99043.03;;;-6.62;89.15
38912;BME280;28444;48.056;14.408;2022-12-18T04:40:54;99042.75;;;-6.48;88.59
38912;BME280;28444;48.056;14.408;2022-12-18T04:43:21;99047.94;;;-6.41;88.30
38912;BME280;28444;48.056;14.408;2022-12-18T04:45:48;99049.03;;;-6.38;87.66
38912;BME280;28444;48.056;14.408;2022-12-18T04:48:14;99043.03;;;-6.42;87.85
38912;BME280;28444;48.056;14.408;2022-12-18T04:50:41;99040.34;;;-6.42;88.30
38912;BME280;28444;48.056;14.408;2022-12-18T04:53:07;99040.69;;;-6.40;88.82
38912;BME280;28444;48.056;14.408;2022-12-18T04:55:35;99049.09;;;-6.42;89.19
38912;BME280;28444;48.056;14.408;2022-12-18T04:58:02;99049.97;;;-6.48;89.03
38912;BME280;28444;48.056;14.408;2022-12-18T05:00:28;99052.16;;;-6.43;89.01
38912;BME280;28444;48.056;14.408;2022-12-18T05:02:55;99050.66;;;-6.44;89.12
38912;BME280;28444;48.056;14.408;2022-12-18T05:05:22;99052.56;;;-6.45;88.99
38912;BME280;28444;48.056;14.408;2022-12-18T05:07:48;99054.66;;;-6.36;88.46
38912;BME280;28444;48.056;14.408;2022-12-18T05:10:15;99058.84;;;-6.35;87.70
38912;BME280;28444;48.056;14.408;2022-12-18T05:12:42;99056.47;;;-6.49;87.83
38912;BME280;28444;48.056;14.408;2022-12-18T05:15:31;99059.88;;;-6.49;88.83
38912;BME280;28444;48.056;14.408;2022-12-18T05:17:58;99049.91;;;-6.65;89.96
38912;BME280;28444;48.056;14.408;2022-12-18T05:20:26;99054.53;;;-6.69;90.85
38912;BME280;28444;48.056;14.408;2022-12-18T05:22:53;99057.09;;;-6.82;92.10
38912;BME280;28444;48.056;14.408;2022-12-18T05:25:21;99049.84;;;-6.81;92.36
38912;BME280;28444;48.056;14.408;2022-12-18T05:27:48;99057.16;;;-6.85;93.15
38912;BME280;28444;48.056;14.408;2022-12-18T05:30:15;99051.63;;;-6.74;93.18
38912;BME280;28444;48.056;14.408;2022-12-18T05:32:42;99048.13;;;-6.91;93.33
38912;BME280;28444;48.056;14.408;2022-12-18T05:35:10;99049.03;;;-6.78;93.25
38912;BME280;28444;48.056;14.408;2022-12-18T05:37:37;99059.53;;;-6.71;93.86
38912;BME280;28444;48.056;14.408;2022-12-18T05:40:09;99059.81;;;-6.85;94.05
38912;BME280;28444;48.056;14.408;2022-12-18T05:42:36;99061.56;;;-6.98;94.84
38912;BME280;28444;48.056;14.408;2022-12-18T05:45:03;99068.13;;;-6.83;95.86
38912;BME280;28444;48.056;14.408;2022-12-18T05:47:30;99069.50;;;-6.75;95.88
38912;BME280;28444;48.056;14.408;2022-12-18T05:49:57;99076.72;;;-6.75;96.55
38912;BME280;28444;48.056;14.408;2022-12-18T05:52:24;99073.31;;;-6.76;95.97
38912;BME280;28444;48.056;14.408;2022-12-18T05:54:50;99088.81;;;-6.71;95.67
38912;BME280;28444;48.056;14.408;2022-12-18T05:57:17;99077.09;;;-6.53;95.86
38912;BME280;28444;48.056;14.408;2022-12-18T05:59:44;99086.22;;;-6.55;95.09
38912;BME280;28444;48.056;14.408;2022-12-18T06:02:11;99086.72;;;-6.60;94.13
38912;BME280;28444;48.056;14.408;2022-12-18T06:04:37;99093.19;;;-6.61;93.19
38912;BME280;28444;48.056;14.408;2022-12-18T06:07:04;99095.56;;;-6.66;92.33
38912;BME280;28444;48.056;14.408;2022-12-18T06:09:31;99094.28;;;-6.78;92.70
38912;BME280;28444;48.056;14.408;2022-12-18T06:11:58;99091.38;;;-6.87;91.89
38912;BME280;28444;48.056;14.408;2022-12-18T06:14:25;99103.19;;;-6.88;92.43
38912;BME280;28444;48.056;14.408;2022-12-18T06:16:51;99108.44;;;-7.08;92.19
38912;BME280;28444;48.056;14.408;2022-12-18T06:19:18;99118.41;;;-7.36;92.08
38912;BME280;28444;48.056;14.408;2022-12-18T06:21:46;99110.06;;;-7.38;92.50
38912;BME280;28444;48.056;14.408;2022-12-18T06:24:13;99115.84;;;-7.43;92.65
38912;BME280;28444;48.056;14.408;2022-12-18T06:26:40;99113.91;;;-7.39;93.41
38912;BME280;28444;48.056;14.408;2022-12-18T06:29:06;99109.78;;;-7.43;93.79
38912;BME280;28444;48.056;14.408;2022-12-18T06:31:33;99117.34;;;-7.42;93.81
38912;BME280;28444;48.056;14.408;2022-12-18T06:34:03;99122.97;;;-7.36;93.28
38912;BME280;28444;48.056;14.408;2022-12-18T06:36:30;99136.13;;;-7.53;92.35
38912;BME280;28444;48.056;14.408;2022-12-18T06:38:57;99137.91;;;-7.46;92.20
38912;BME280;28444;48.056;14.408;2022-12-18T06:41:23;99135.84;;;-7.58;90.81
38912;BME280;28444;48.056;14.408;2022-12-18T06:43:50;99132.91;;;-7.67;89.45
38912;BME280;28444;48.056;14.408;2022-12-18T06:46:23;99132.66;;;-7.77;90.35
38912;BME280;28444;48.056;14.408;2022-12-18T06:48:50;99139.13;;;-7.78;90.45
38912;BME280;28444;48.056;14.408;2022-12-18T06:51:21;99131.03;;;-7.97;89.37
38912;BME280;28444;48.056;14.408;2022-12-18T06:53:48;99136.72;;;-7.99;90.09
38912;BME280;28444;48.056;14.408;2022-12-18T06:56:14;99135.81;;;-8.16;90.34
38912;BME280;28444;48.056;14.408;2022-12-18T06:58:41;99133.19;;;-8.19;90.34
38912;BME280;28444;48.056;14.408;2022-12-18T07:01:10;99130.72;;;-8.34;90.25
38912;BME280;28444;48.056;14.408;2022-12-18T07:03:41;99151.16;;;-8.31;89.91
38912;BME280;28444;48.056;14.408;2022-12-18T07:06:17;99149.97;;;-8.57;90.28
38912;BME280;28444;48.056;14.408;2022-12-18T07:08:44;99148.75;;;-8.52;90.44
38912;BME280;28444;48.056;14.408;2022-12-18T07:11:11;99149.88;;;-8.50;90.95
38912;BME280;28444;48.056;14.408;2022-12-18T07:13:38;99162.25;;;-8.39;89.49
38912;BME280;28444;48.056;14.408;2022-12-18T07:16:18;99169.63;;;-8.54;90.57
38912;BME280;28444;48.056;14.408;2022-12-18T07:18:50;99175.38;;;-8.59;90.70
38912;BME280;28444;48.056;14.408;2022-12-18T07:21:19;99179.06;;;-8.50;90.46
38912;BME280;28444;48.056;14.408;2022-12-18T07:23:45;99166.47;;;-8.42;90.94
38912;BME280;28444;48.056;14.408;2022-12-18T07:26:16;99172.81;;;-8.36;91.33
38912;BME280;28444;48.056;14.408;2022-12-18T07:28:43;99172.63;;;-8.49;90.31
38912;BME280;28444;48.056;14.408;2022-12-18T07:31:16;99177.88;;;-8.45;90.65
38912;BME280;28444;48.056;14.408;2022-12-18T07:33:43;99186.91;;;-8.39;90.42
38912;BME280;28444;48.056;14.408;2022-12-18T07:36:10;99183.81;;;-8.34;91.06
38912;BME280;28444;48.056;14.408;2022-12-18T07:38:37;99167.94;;;-8.37;91.94
38912;BME280;28444;48.056;14.408;2022-12-18T07:41:06;99175.78;;;-8.64;93.48
38912;BME280;28444;48.056;14.408;2022-12-18T07:43:34;99172.06;;;-8.36;94.29
38912;BME280;28444;48.056;14.408;2022-12-18T07:46:01;99165.44;;;-8.21;94.71
38912;BME280;28444;48.056;14.408;2022-12-18T07:48:28;99162.63;;;-8.07;93.96
38912;BME280;28444;48.056;14.408;2022-12-18T07:51:03;99169.75;;;-8.00;93.19
38912;BME280;28444;48.056;14.408;2022-12-18T07:53:31;99169.31;;;-7.91;93.28
38912;BME280;28444;48.056;14.408;2022-12-18T07:55:59;99177.06;;;-7.77;92.56
38912;BME280;28444;48.056;14.408;2022-12-18T07:58:46;99178.84;;;-7.67;92.02
38912;BME280;28444;48.056;14.408;2022-12-18T08:01:13;99185.69;;;-7.39;91.85
38912;BME280;28444;48.056;14.408;2022-12-18T08:03:40;99180.16;;;-7.24;91.46
38912;BME280;28444;48.056;14.408;2022-12-18T08:06:09;99192.69;;;-7.25;90.56
38912;BME280;28444;48.056;14.408;2022-12-18T08:08:36;99194.72;;;-7.33;90.03
38912;BME280;28444;48.056;14.408;2022-12-18T08:11:03;99199.44;;;-7.44;90.47
38912;BME280;28444;48.056;14.408;2022-12-18T08:13:30;99197.06;;;-7.38;90.87
38912;BME280;28444;48.056;14.408;2022-12-18T08:16:06;99189.25;;;-7.22;91.16
38912;BME280;28444;48.056;14.408;2022-12-18T08:18:34;99190.03;;;-7.25;90.38
38912;BME280;28444;48.056;14.408;2022-12-18T08:21:12;99190.03;;;-7.52;89.42
38912;BME280;28444;48.056;14.408;2022-12-18T08:23:39;99189.28;;;-7.53;89.28
38912;BME280;28444;48.056;14.408;2022-12-18T08:26:10;99190.34;;;-7.46;89.67
38912;BME280;28444;48.056;14.408;2022-12-18T08:28:36;99192.63;;;-7.48;89.90
38912;BME280;28444;48.056;14.408;2022-12-18T08:31:04;99197.06;;;-7.38;89.64
38912;BME280;28444;48.056;14.408;2022-12-18T08:33:32;99200.69;;;-7.25;89.33
38912;BME280;28444;48.056;14.408;2022-12-18T08:35:59;99200.69;;;-7.25;88.87
38912;BME280;28444;48.056;14.408;2022-12-18T08:38:26;99198.06;;;-7.29;88.63
38912;BME280;28444;48.056;14.408;2022-12-18T08:41:04;99201.13;;;-7.30;88.61
38912;BME280;28444;48.056;14.408;2022-12-18T08:43:31;99193.34;;;-7.44;88.04
38912;BME280;28444;48.056;14.408;2022-12-18T08:46:20;99194.41;;;-7.38;88.93
38912;BME280;28444;48.056;14.408;2022-12-18T08:48:48;99188.94;;;-7.55;89.34
38912;BME280;28444;48.056;14.408;2022-12-18T08:51:16;99196.47;;;-7.49;89.54
38912;BME280;28444;48.056;14.408;2022-12-18T08:53:44;99194.06;;;-7.40;89.26
38912;BME280;28444;48.056;14.408;2022-12-18T08:56:14;99195.91;;;-7.37;89.42
38912;BME280;28444;48.056;14.408;2022-12-18T08:58:41;99189.41;;;-7.33;89.16
38912;BME280;28444;48.056;14.408;2022-12-18T09:01:10;99200.41;;;-7.34;88.73
38912;BME280;28444;48.056;14.408;2022-12-18T09:03:37;99197.00;;;-7.35;88.44
38912;BME280;28444;48.056;14.408;2022-12-18T09:06:05;99190.69;;;-7.17;88.85
38912;BME280;28444;48.056;14.408;2022-12-18T09:08:32;99187.88;;;-7.34;88.44
38912;BME280;28444;48.056;14.408;2022-12-18T09:10:58;99192.69;;;-7.25;89.15
38912;BME280;28444;48.056;14.408;2022-12-18T09:13:25;99186.59;;;-7.22;88.72
38912;BME280;28444;48.056;14.408;2022-12-18T09:15:53;99187.31;;;-7.21;88.46
38912;BME280;28444;48.056;14.408;2022-12-18T09:18:22;99199.28;;;-7.33;87.89
38912;BME280;28444;48.056;14.408;2022-12-18T09:20:49;99193.91;;;-7.30;89.36
38912;BME280;28444;48.056;14.408;2022-12-18T09:23:18;99202.75;;;-7.36;88.37
38912;BME280;28444;48.056;14.408;2022-12-18T09:25:44;99200.19;;;-7.43;87.87
38912;BME280;28444;48.056;14.408;2022-12-18T09:28:13;99194.91;;;-7.47;88.41
38912;BME280;28444;48.056;14.408;2022-12-18T09:30:43;99185.78;;;-7.46;88.64
38912;BME280;28444;48.056;14.408;2022-12-18T09:33:10;99175.59;;;-7.24;88.94
38912;BME280;28444;48.056;14.408;2022-12-18T09:35:38;99180.78;;;-7.17;88.71
38912;BME280;28444;48.056;14.408;2022-12-18T09:38:05;99176.16;;;-7.13;89.02
38912;BME280;28444;48.056;14.408;2022-12-18T09:40:39;99177.44;;;-6.97;88.41
38912;BME280;28444;48.056;14.408;2022-12-18T09:43:18;99174.56;;;-7.07;88.20
38912;BME280;28444;48.056;14.408;2022-12-18T09:45:53;99178.44;;;-6.88;88.57
38912;BME280;28444;48.056;14.408;2022-12-18T09:48:51;99174.03;;;-6.74;88.65
38912;BME280;28444;48.056;14.408;2022-12-18T09:51:27;99184.09;;;-6.62;89.37
38912;BME280;28444;48.056;14.408;2022-12-18T09:54:04;99178.69;;;-6.35;89.73
38912;BME280;28444;48.056;14.408;2022-12-18T09:56:35;99178.63;;;-6.32;89.78
38912;BME280;28444;48.056;14.408;2022-12-18T09:59:05;99172.19;;;-6.34;89.43
38912;BME280;28444;48.056;14.408;2022-12-18T10:01:32;99171.78;;;-6.13;89.73
38912;BME280;28444;48.056;14.408;2022-12-18T10:04:09;99159.91;;;-6.08;90.09
38912;BME280;28444;48.056;14.408;2022-12-18T10:06:44;99159.16;;;-5.72;89.83
38912;BME280;28444;48.056;14.408;2022-12-18T10:09:28;99158.19;;;-5.62;89.14
38912;BME280;28444;48.056;14.408;2022-12-18T10:12:16;99156.03;;;-5.51;88.77
38912;BME280;28444;48.056;14.408;2022-12-18T10:15:06;99162.97;;;-5.37;88.79
38912;BME280;28444;48.056;14.408;2022-12-18T10:18:06;99160.13;;;-5.30;89.09
38912;BME280;28444;48.056;14.408;2022-12-18T10:20:49;99159.53;;;-5.21;89.21
38912;BME280;28444;48.056;14.408;2022-12-18T10:23:32;99155.44;;;-5.10;89.01
38912;BME280;28444;48.056;14.408;2022-12-18T10:26:09;99155.78;;;-4.91;89.26
38912;BME280;28444;48.056;14.408;2022-12-18T10:28:38;99161.69;;;-4.67;89.21
38912;BME280;28444;48.056;14.408;2022-12-18T10:31:10;99153.88;;;-4.45;88.47
38912;BME280;28444;48.056;14.408;2022-12-18T10:33:40;99150.09;;;-4.19;87.54
38912;BME280;28444;48.056;14.408;2022-12-18T10:36:07;99145.94;;;-4.20;86.90
38912;BME280;28444;48.056;14.408;2022-12-18T10:38:34;99145.19;;;-4.20;87.20
38912;BME280;28444;48.056;14.408;2022-12-18T10:43:30;99144.56;;;-4.41;87.58
38912;BME280;28444;48.056;14.408;2022-12-18T10:48:34;99126.13;;;-4.64;88.06
38912;BME280;28444;48.056;14.408;2022-12-18T10:51:03;99123.28;;;-4.57;88.60
38912;BME280;28444;48.056;14.408;2022-12-18T10:53:40;99123.69;;;-4.58;88.21
38912;BME280;28444;48.056;14.408;2022-12-18T10:56:08;99104.13;;;-4.55;88.40
38912;BME280;28444;48.056;14.408;2022-12-18T10:58:37;99101.53;;;-4.43;88.46
38912;BME280;28444;48.056;14.408;2022-12-18T11:01:22;99101.63;;;-4.33;87.85
38912;BME280;28444;48.056;14.408;2022-12-18T11:04:15;99093.13;;;-4.28;87.29
38912;BME280;28444;48.056;14.408;2022-12-18T11:06:57;99085.59;;;-4.46;88.08
38912;BME280;28444;48.056;14.408;2022-12-18T11:09:28;99078.53;;;-4.40;88.29
38912;BME280;28444;48.056;14.408;2022-12-18T11:11:58;99082.63;;;-4.36;88.99
38912;BME280;28444;48.056;14.408;2022-12-18T11:14:29;99078.59;;;-4.27;88.26
38912;BME280;28444;48.056;14.408;2022-12-18T11:16:58;99084.69;;;-4.14;87.89
38912;BME280;28444;48.056;14.408;2022-12-18T11:19:52;99082.97;;;-4.08;87.57
38912;BME280;28444;48.056;14.408;2022-12-18T11:22:33;99080.50;;;-4.15;87.23
38912;BME280;28444;48.056;14.408;2022-12-18T11:25:17;99078.19;;;-4.13;87.14
38912;BME280;28444;48.056;14.408;2022-12-18T11:31:11;99076.69;;;-4.01;87.14
38912;BME280;28444;48.056;14.408;2022-12-18T11:33:42;99084.50;;;-3.94;86.73
38912;BME280;28444;48.056;14.408;2022-12-18T11:36:42;99088.47;;;-3.99;87.28
38912;BME280;28444;48.056;14.408;2022-12-18T11:39:17;99083.75;;;-3.95;87.65
38912;BME280;28444;48.056;14.408;2022-12-18T11:41:58;99085.56;;;-4.04;87.48
38912;BME280;28444;48.056;14.408;2022-12-18T11:47:42;99085.91;;;-3.77;86.92
38912;BME280;28444;48.056;14.408;2022-12-18T11:50:14;99079.03;;;-3.78;87.07
38912;BME280;28444;48.056;14.408;2022-12-18T11:52:42;99079.59;;;-3.83;86.99
38912;BME280;28444;48.056;14.408;2022-12-18T11:55:15;99079.47;;;-3.79;86.51
38912;BME280;28444;48.056;14.408;2022-12-18T11:57:52;99077.97;;;-3.68;86.04
38912;BME280;28444;48.056;14.408;2022-12-18T12:00:22;99078.81;;;-3.71;86.61
38912;BME280;28444;48.056;14.408;2022-12-18T12:06:05;99070.59;;;-3.89;86.56
38912;BME280;28444;48.056;14.408;2022-12-18T12:12:09;99058.41;;;-3.90;87.11
38912;BME280;28444;48.056;14.408;2022-12-18T12:14:49;99063.66;;;-3.87;87.68
38912;BME280;28444;48.056;14.408;2022-12-18T12:17:42;99062.03;;;-3.71;87.54
38912;BME280;28444;48.056;14.408;2022-12-18T12:20:20;99052.19;;;-3.74;86.83
38912;BME280;28444;48.056;14.408;2022-12-18T12:23:23;99051.75;;;-3.85;86.84
38912;BME280;28444;48.056;14.408;2022-12-18T12:26:18;99045.69;;;-3.86;86.77
38912;BME280;28444;48.056;14.408;2022-12-18T12:29:26;99057.88;;;-3.72;87.20
38912;BME280;28444;48.056;14.408;2022-12-18T12:35:24;99039.16;;;-3.59;86.32
38912;BME280;28444;48.056;14.408;2022-12-18T12:41:02;99043.19;;;-3.68;86.56
38912;BME280;28444;48.056;14.408;2022-12-18T12:43:41;99048.13;;;-3.79;86.87
38912;BME280;28444;48.056;14.408;2022-12-18T12:46:18;99057.03;;;-3.95;87.60
38912;BME280;28444;48.056;14.408;2022-12-18T12:49:17;99065.03;;;-3.95;87.66
38912;BME280;28444;48.056;14.408;2022-12-18T12:51:48;99061.84;;;-3.77;87.45
38912;BME280;28444;48.056;14.408;2022-12-18T12:54:19;99067.81;;;-3.73;87.34
38912;BME280;28444;48.056;14.408;2022-12-18T12:57:23;99080.31;;;-3.82;87.88
38912;BME280;28444;48.056;14.408;2022-12-18T13:00:07;99081.38;;;-3.54;87.18
38912;BME280;28444;48.056;14.408;2022-12-18T13:03:27;99085.00;;;-3.35;86.46
38912;BME280;28444;48.056;14.408;2022-12-18T13:06:00;99081.00;;;-3.18;85.87
38912;BME280;28444;48.056;14.408;2022-12-18T13:08:34;99089.09;;;-3.44;86.33
38912;BME280;28444;48.056;14.408;2022-12-18T13:11:47;99085.97;;;-3.42;86.47
38912;BME280;28444;48.056;14.408;2022-12-18T13:14:38;99101.50;;;-3.50;86.06
38912;BME280;28444;48.056;14.408;2022-12-18T13:17:28;99107.91;;;-3.47;86.66
38912;BME280;28444;48.056;14.408;2022-12-18T13:20:11;99113.34;;;-3.38;86.80
38912;BME280;28444;48.056;14.408;2022-12-18T13:22:47;99113.91;;;-3.43;86.44
38912;BME280;28444;48.056;14.408;2022-12-18T13:25:41;99115.50;;;-3.33;86.49
38912;BME280;28444;48.056;14.408;2022-12-18T13:28:13;99116.59;;;-3.30;86.58
38912;BME280;28444;48.056;14.408;2022-12-18T13:31:01;99116.59;;;-3.30;85.82
38912;BME280;28444;48.056;14.408;2022-12-18T13:33:45;99118.94;;;-3.32;86.18
38912;BME280;28444;48.056;14.408;2022-12-18T13:36:33;99128.03;;;-3.43;87.13
38912;BME280;28444;48.056;14.408;2022-12-18T13:39:33;99122.16;;;-3.37;86.39
38912;BME280;28444;48.056;14.408;2022-12-18T13:42:34;99122.38;;;-3.45;86.27
38912;BME280;28444;48.056;14.408;2022-12-18T13:46:16;99113.91;;;-3.56;86.73
38912;BME280;28444;48.056;14.408;2022-12-18T13:49:28;99119.81;;;-3.48;87.01
38912;BME280;28444;48.056;14.408;2022-12-18T13:51:57;99115.47;;;-3.07;86.49
38912;BME280;28444;48.056;14.408;2022-12-18T13:54:52;99115.47;;;-3.20;85.70
38912;BME280;28444;48.056;14.408;2022-12-18T13:57:32;99114.31;;;-3.32;86.54
38912;BME280;28444;48.056;14.408;2022-12-18T14:00:26;99115.63;;;-3.49;87.05
38912;BME280;28444;48.056;14.408;2022-12-18T14:02:55;99120.88;;;-3.71;88.23